Time;durP1;ratioP1;P1;durP2;ratioP2;P2;SDS_P1;SDS_P2;PMS_P1;PMS_P2;Temp;Humidity;BMP_temperature;BMP_pressure;BME280_temperature;BME280_humidity;BME280_pressure;Samples;Min_cycle;Max_cycle;Signal;HPM_P1;HPM_P2
2022/07/08 00:02:21;;;;;;;3.65;1.00;;;;;;;15.30;100.00;102973.72;2614848;36;20559;-59
2022/07/08 00:04:49;;;;;;;3.10;0.98;;;;;;;15.31;100.00;102972.75;2614068;36;20941;-59
2022/07/08 00:07:20;;;;;;;4.63;1.10;;;;;;;15.26;100.00;102974.06;2615054;36;20034;-63
2022/07/08 00:09:48;;;;;;;1.75;1.08;;;;;;;15.22;100.00;102967.97;2614303;36;20051;-59
2022/07/08 00:12:16;;;;;;;2.50;1.80;;;;;;;15.09;100.00;102973.47;2614530;36;20106;-61
2022/07/08 00:14:44;;;;;;;3.13;1.20;;;;;;;15.05;100.00;102975.53;2614596;36;20030;-60
2022/07/08 00:17:13;;;;;;;2.40;1.05;;;;;;;14.92;100.00;102971.16;2614755;36;20034;-58
2022/07/08 00:19:41;;;;;;;5.03;1.30;;;;;;;14.85;100.00;102977.00;2614746;31;20622;-61
2022/07/08 00:22:09;;;;;;;1.27;0.80;;;;;;;14.82;100.00;102974.50;2614373;31;20079;-59
2022/07/08 00:24:40;;;;;;;2.73;0.93;;;;;;;14.78;100.00;102982.97;2614664;36;20075;-59
2022/07/08 00:27:08;;;;;;;2.08;0.98;;;;;;;14.83;100.00;102981.66;2615166;36;20058;-60
2022/07/08 00:29:37;;;;;;;1.88;1.25;;;;;;;14.86;100.00;102983.31;2615531;31;20034;-60
2022/07/08 00:32:06;;;;;;;1.52;0.80;;;;;;;14.98;100.00;102976.09;2614698;36;20516;-59
2022/07/08 00:34:34;;;;;;;2.97;1.02;;;;;;;15.06;100.00;102974.56;2614816;36;20102;-59
2022/07/08 00:37:03;;;;;;;1.58;0.90;;;;;;;15.07;100.00;102978.13;2614777;36;20038;-58
2022/07/08 00:39:31;;;;;;;6.10;0.95;;;;;;;15.13;100.00;102990.38;2615069;36;20042;-58
2022/07/08 00:42:02;;;;;;;3.45;1.02;;;;;;;15.22;100.00;102985.16;2614464;36;20039;-57
2022/07/08 00:44:31;;;;;;;2.70;1.20;;;;;;;15.20;100.00;102986.22;2614191;36;20602;-61
2022/07/08 00:46:59;;;;;;;6.53;1.30;;;;;;;15.19;100.00;102989.91;2615007;36;20060;-58
2022/07/08 00:49:28;;;;;;;2.85;0.95;;;;;;;15.21;100.00;102982.53;2614869;36;20168;-60
2022/07/08 00:51:58;;;;;;;2.60;1.30;;;;;;;15.15;100.00;102983.88;2613927;36;20409;-60
2022/07/08 00:54:27;;;;;;;1.42;0.88;;;;;;;15.31;100.00;102988.13;2614477;36;20038;-60
2022/07/08 00:56:57;;;;;;;4.85;1.05;;;;;;;15.16;100.00;102973.88;2614756;36;20042;-60
2022/07/08 00:59:29;;;;;;;2.63;1.40;;;;;;;15.16;100.00;102990.16;2615250;36;20042;-61
2022/07/08 01:01:57;;;;;;;3.97;1.25;;;;;;;15.09;100.00;102984.31;2614429;36;20034;-59
2022/07/08 01:04:26;;;;;;;3.87;1.00;;;;;;;15.08;100.00;102985.28;2613752;36;20034;-58
2022/07/08 01:06:54;;;;;;;1.67;1.02;;;;;;;15.13;100.00;102984.94;2614073;36;20042;-61
2022/07/08 01:09:22;;;;;;;2.10;0.93;;;;;;;15.06;100.00;102974.56;2614212;36;20608;-59
2022/07/08 01:11:51;;;;;;;1.87;1.10;;;;;;;14.97;100.00;102983.38;2614715;36;20085;-61
2022/07/08 01:14:19;;;;;;;2.53;1.05;;;;;;;14.97;100.00;102987.94;2614021;36;20555;-58
2022/07/08 01:16:50;;;;;;;1.42;0.93;;;;;;;14.93;100.00;102992.72;2614399;36;20069;-60
2022/07/08 01:19:18;;;;;;;3.35;1.08;;;;;;;14.90;100.00;102990.25;2614586;36;20042;-58
2022/07/08 01:21:50;;;;;;;3.65;1.00;;;;;;;14.94;100.00;102999.84;2613895;36;20726;-57
2022/07/08 01:24:19;;;;;;;4.80;1.08;;;;;;;14.92;100.00;102999.13;2614793;36;20141;-57
2022/07/08 01:26:47;;;;;;;1.95;1.00;;;;;;;14.88;100.00;102995.78;2614872;36;20723;-62
2022/07/08 01:29:16;;;;;;;2.90;1.13;;;;;;;14.89;100.00;102996.63;2614648;31;20081;-61
2022/07/08 01:31:44;;;;;;;3.78;1.13;;;;;;;14.96;100.00;102995.22;2614237;36;20882;-61
2022/07/08 01:34:12;;;;;;;3.58;1.02;;;;;;;14.98;100.00;102997.81;2615301;31;20429;-59
2022/07/08 01:36:40;;;;;;;2.50;1.15;;;;;;;14.89;100.00;102999.34;2615604;31;20528;-58
2022/07/08 01:39:11;;;;;;;5.85;1.10;;;;;;;14.86;100.00;102996.84;2613958;36;20070;-61
2022/07/08 01:41:39;;;;;;;4.82;0.98;;;;;;;14.83;100.00;102999.78;2615253;31;20536;-61
2022/07/08 01:44:08;;;;;;;5.82;1.30;;;;;;;14.77;100.00;103006.53;2614214;36;20038;-60
2022/07/08 01:46:37;;;;;;;4.15;1.02;;;;;;;14.76;100.00;102999.34;2614684;36;20030;-59
2022/07/08 01:49:06;;;;;;;5.30;1.30;;;;;;;14.75;100.00;102994.06;2614398;36;20041;-60
2022/07/08 01:51:34;;;;;;;2.15;1.00;;;;;;;14.84;100.00;102985.25;2614539;36;20034;-60
2022/07/08 01:54:02;;;;;;;3.72;1.20;;;;;;;14.74;100.00;102979.63;2614144;36;20066;-58
2022/07/08 01:56:33;;;;;;;2.35;1.00;;;;;;;14.73;100.00;102972.47;2614759;36;20141;-59
2022/07/08 01:59:01;;;;;;;3.35;1.10;;;;;;;14.67;100.00;102973.78;2614237;36;20186;-59
2022/07/08 02:01:30;;;;;;;1.48;0.98;;;;;;;14.58;100.00;102984.41;2614957;36;20417;-62
2022/07/08 02:04:01;;;;;;;5.57;1.35;;;;;;;14.37;100.00;102983.13;2614225;36;20039;-62
2022/07/08 02:06:35;;;;;;;5.00;1.20;;;;;;;14.32;100.00;102984.41;2615925;36;20039;-60
2022/07/08 02:09:03;;;;;;;4.72;1.10;;;;;;;14.31;100.00;102982.66;2614485;36;20063;-58
2022/07/08 02:14:15;;;;;;;2.05;0.90;;;;;;;14.26;100.00;102983.00;2613802;36;20057;-59
2022/07/08 02:16:43;;;;;;;1.48;1.10;;;;;;;14.23;100.00;102980.50;2614026;36;20532;-58
2022/07/08 02:19:11;;;;;;;2.85;1.00;;;;;;;14.16;100.00;102985.50;2614075;36;20085;-59
2022/07/08 02:21:40;;;;;;;1.88;1.20;;;;;;;14.07;100.00;102985.28;2614012;36;20062;-57
2022/07/08 02:24:09;;;;;;;2.40;0.98;;;;;;;13.96;100.00;102984.19;2614012;36;20053;-58
2022/07/08 02:26:40;;;;;;;1.60;1.05;;;;;;;13.93;100.00;102989.81;2614362;36;20038;-59
2022/07/08 02:29:08;;;;;;;2.35;1.17;;;;;;;13.81;100.00;102996.94;2614396;36;20111;-60
2022/07/08 02:31:37;;;;;;;3.10;1.25;;;;;;;13.75;100.00;102986.53;2614378;36;20035;-61
2022/07/08 02:34:05;;;;;;;2.20;1.13;;;;;;;13.60;100.00;102988.44;2613494;36;20515;-59
2022/07/08 02:36:33;;;;;;;2.95;1.67;;;;;;;13.62;100.00;102981.09;2614786;36;20122;-60
2022/07/08 02:39:01;;;;;;;1.58;1.00;;;;;;;13.54;100.00;102986.13;2615053;36;20034;-59
2022/07/08 02:41:30;;;;;;;4.10;1.17;;;;;;;13.46;100.00;102991.22;2614817;36;20127;-62
2022/07/08 02:44:00;;;;;;;3.78;1.08;;;;;;;13.46;100.00;102985.78;2615419;36;20142;-58
2022/07/08 02:46:29;;;;;;;1.50;1.10;;;;;;;13.44;100.00;102987.72;2614394;36;20046;-58
2022/07/08 02:48:57;;;;;;;2.28;1.30;;;;;;;13.35;100.00;102993.75;2615112;36;20081;-58
2022/07/08 02:51:25;;;;;;;2.75;1.05;;;;;;;13.28;100.00;102991.44;2606829;36;20046;-62
2022/07/08 02:53:53;;;;;;;2.63;1.13;;;;;;;13.19;100.00;102993.84;2614465;36;20059;-57
2022/07/08 02:56:22;;;;;;;3.97;1.27;;;;;;;13.13;100.00;102997.81;2615005;36;20866;-59
2022/07/08 02:58:50;;;;;;;3.33;0.93;;;;;;;13.08;100.00;102997.28;2614176;36;20069;-59
2022/07/08 03:01:21;;;;;;;2.97;1.38;;;;;;;13.07;100.00;102999.13;2615479;36;20031;-61
2022/07/08 03:03:49;;;;;;;2.60;1.30;;;;;;;12.97;100.00;102998.84;2615140;36;20075;-61
2022/07/08 03:06:18;;;;;;;2.10;1.60;;;;;;;12.94;100.00;102996.34;2614497;36;20607;-59
2022/07/08 03:08:46;;;;;;;1.60;1.00;;;;;;;12.92;100.00;102992.00;2615909;31;20599;-58
2022/07/08 03:11:15;;;;;;;3.53;1.45;;;;;;;12.88;100.00;102994.03;2614562;36;20058;-59
2022/07/08 03:13:43;;;;;;;1.97;1.23;;;;;;;12.83;100.00;102988.03;2615695;36;20452;-57
2022/07/08 03:16:12;;;;;;;2.53;1.30;;;;;;;12.86;100.00;102987.84;2614848;31;20388;-57
2022/07/08 03:18:42;;;;;;;3.38;1.27;;;;;;;12.83;100.00;102996.16;2614696;36;20042;-60
2022/07/08 03:21:11;;;;;;;3.83;1.20;;;;;;;12.84;100.00;103005.13;2614599;36;20066;-58
2022/07/08 03:23:39;;;;;;;2.63;1.67;;;;;;;12.78;100.00;102995.59;2615202;31;20031;-58
2022/07/08 03:26:07;;;;;;;5.70;2.40;;;;;;;12.75;100.00;103002.06;2614874;36;20150;-60
2022/07/08 03:28:36;;;;;;;3.33;2.08;;;;;;;12.71;100.00;103010.47;2615318;36;20079;-58
2022/07/08 03:31:04;;;;;;;4.90;2.35;;;;;;;12.64;100.00;103001.00;2614503;36;20055;-58
2022/07/08 03:33:32;;;;;;;3.07;1.97;;;;;;;12.63;100.00;103002.81;2614632;31;20057;-58
2022/07/08 03:36:03;;;;;;;2.85;1.52;;;;;;;12.59;100.00;103007.56;2614594;36;20152;-57
2022/07/08 03:38:32;;;;;;;3.67;1.50;;;;;;;12.64;100.00;103007.25;2614973;36;20034;-57
2022/07/08 03:43:41;;;;;;;3.78;1.90;;;;;;;12.69;100.00;103015.06;2614813;36;20030;-59
2022/07/08 03:46:10;;;;;;;2.70;1.33;;;;;;;12.69;100.00;103017.78;2615038;31;20563;-59
2022/07/08 03:48:38;;;;;;;4.20;1.88;;;;;;;12.70;100.00;103008.72;2614639;31;20551;-60
2022/07/08 03:51:09;;;;;;;3.88;2.08;;;;;;;12.72;100.00;103020.28;2614798;36;20752;-61
2022/07/08 03:53:37;;;;;;;7.53;1.70;;;;;;;12.76;100.00;103025.41;2614452;31;20031;-63
2022/07/08 03:56:07;;;;;;;2.88;1.65;;;;;;;12.79;100.00;103029.72;2614816;36;20812;-58
2022/07/08 03:58:36;;;;;;;5.35;2.72;;;;;;;12.86;100.00;103032.94;2615084;36;20598;-59
2022/07/08 04:01:06;;;;;;;2.53;1.70;;;;;;;12.87;100.00;103035.53;2614674;31;20030;-59
2022/07/08 04:03:34;;;;;;;4.30;1.80;;;;;;;12.88;100.00;103041.78;2614380;36;20073;-58
2022/07/08 04:06:02;;;;;;;2.43;1.63;;;;;;;12.89;100.00;103046.25;2615807;31;20461;-64
2022/07/08 04:08:33;;;;;;;2.17;1.30;;;;;;;12.89;100.00;103041.69;2614707;36;20310;-60
2022/07/08 04:11:01;;;;;;;1.88;1.38;;;;;;;12.88;100.00;103042.69;2614964;36;20564;-58
2022/07/08 04:13:30;;;;;;;4.82;1.70;;;;;;;12.86;100.00;103057.25;2614803;36;20023;-60
2022/07/08 04:15:58;;;;;;;5.47;1.90;;;;;;;12.88;100.00;103049.91;2615007;36;20162;-60
2022/07/08 04:18:27;;;;;;;5.05;1.90;;;;;;;12.88;100.00;103044.50;2614149;36;20126;-67
2022/07/08 04:20:55;;;;;;;2.10;1.45;;;;;;;12.92;100.00;103049.59;2614313;36;20592;-59
2022/07/08 04:23:24;;;;;;;4.90;1.80;;;;;;;12.96;100.00;103053.00;2615440;36;20538;-62
2022/07/08 04:25:55;;;;;;;7.05;1.45;;;;;;;12.98;100.00;103056.47;2614978;36;20057;-60
2022/07/08 04:28:23;;;;;;;2.72;1.50;;;;;;;13.01;100.00;103050.00;2614783;36;20095;-59
2022/07/08 04:30:51;;;;;;;2.17;1.38;;;;;;;13.06;100.00;103058.66;2614945;36;20563;-67
2022/07/08 04:33:20;;;;;;;3.70;1.47;;;;;;;13.08;100.00;103048.66;2615045;36;20034;-57
2022/07/08 04:35:48;;;;;;;3.30;1.52;;;;;;;13.11;100.00;103056.56;2614704;36;20848;-58
2022/07/08 04:38:16;;;;;;;3.60;1.88;;;;;;;13.11;100.00;103048.44;2614112;36;20131;-58
2022/07/08 04:40:45;;;;;;;1.77;1.33;;;;;;;13.15;100.00;103058.97;2613602;36;20022;-58
2022/07/08 04:43:15;;;;;;;4.15;1.55;;;;;;;13.23;100.00;103057.59;2614773;36;20041;-63
2022/07/08 04:45:50;;;;;;;3.15;1.65;;;;;;;13.32;100.00;103062.41;2615540;31;20074;-61
2022/07/08 04:48:18;;;;;;;4.45;1.60;;;;;;;13.44;100.00;103064.34;2615288;36;20130;-58
2022/07/08 04:50:46;;;;;;;2.17;1.30;;;;;;;13.49;100.00;103066.75;2614655;36;20063;-60
2022/07/08 04:53:14;;;;;;;3.03;1.40;;;;;;;13.53;100.00;103065.59;2614326;31;20118;-68
2022/07/08 04:55:43;;;;;;;5.57;1.33;;;;;;;13.72;100.00;103059.81;2614668;36;20114;-63
2022/07/08 04:58:11;;;;;;;5.45;1.40;;;;;;;13.87;100.00;103066.03;2614544;31;20113;-58
2022/07/08 05:00:42;;;;;;;2.85;1.55;;;;;;;13.96;100.00;103073.53;2613372;36;20085;-59
2022/07/08 05:03:10;;;;;;;3.65;1.25;;;;;;;14.13;100.00;103069.69;2614387;36;20086;-58
2022/07/08 05:05:38;;;;;;;3.13;1.30;;;;;;;14.17;100.00;103067.59;2615060;36;20069;-64
2022/07/08 05:08:07;;;;;;;5.57;1.60;;;;;;;14.25;100.00;103064.38;2614450;36;20030;-67
2022/07/08 05:10:36;;;;;;;2.25;1.15;;;;;;;14.45;100.00;103076.53;2613675;36;20042;-57
2022/07/08 05:13:05;;;;;;;4.55;1.30;;;;;;;14.51;100.00;103076.09;2615230;31;20035;-58
2022/07/08 05:15:34;;;;;;;2.95;1.17;;;;;;;14.63;100.00;103069.84;2615070;36;20030;-58
2022/07/08 05:18:04;;;;;;;2.22;1.55;;;;;;;14.75;100.00;103067.25;2614404;36;20065;-62
2022/07/08 05:20:33;;;;;;;3.42;1.10;;;;;;;14.87;100.00;103078.09;2613135;31;20046;-64
2022/07/08 05:23:01;;;;;;;2.58;1.10;;;;;;;14.95;100.00;103074.81;2613281;36;20048;-58
2022/07/08 05:25:29;;;;;;;3.37;1.40;;;;;;;14.98;100.00;103074.59;2614720;36;20170;-57
2022/07/08 05:27:58;;;;;;;4.63;1.50;;;;;;;15.01;100.00;103079.78;2615525;36;20446;-58
2022/07/08 05:30:26;;;;;;;3.90;1.52;;;;;;;15.16;100.00;103077.78;2613758;36;20042;-63
2022/07/08 05:32:54;;;;;;;1.77;1.02;;;;;;;15.13;100.00;103077.16;2614653;36;20042;-65
2022/07/08 05:35:25;;;;;;;1.50;1.00;;;;;;;15.07;100.00;103075.75;2614768;36;20057;-60
2022/07/08 05:37:54;;;;;;;2.53;1.10;;;;;;;15.24;100.00;103082.69;2614883;36;20058;-57
2022/07/08 05:40:22;;;;;;;4.30;1.17;;;;;;;15.42;100.00;103086.75;2614179;36;20583;-60
2022/07/08 05:42:50;;;;;;;4.87;1.33;;;;;;;15.54;100.00;103089.53;2615546;36;20412;-64
2022/07/08 05:45:19;;;;;;;1.80;1.02;;;;;;;15.71;100.00;103086.44;2614971;36;20043;-60
2022/07/08 05:47:47;;;;;;;1.35;1.00;;;;;;;16.01;100.00;103085.09;2614897;36;20122;-60
2022/07/08 05:50:15;;;;;;;2.45;1.10;;;;;;;16.02;100.00;103080.53;2614211;36;20046;-59
2022/07/08 05:52:46;;;;;;;1.83;1.15;;;;;;;16.26;100.00;103080.50;2614656;36;20038;-59
2022/07/08 05:55:14;;;;;;;3.45;1.05;;;;;;;16.35;100.00;103074.34;2614774;36;20038;-64
2022/07/08 05:57:42;;;;;;;5.30;1.13;;;;;;;16.23;100.00;103083.47;2614975;36;20556;-60
2022/07/08 06:00:12;;;;;;;4.67;1.10;;;;;;;16.38;100.00;103076.81;2614156;36;20058;-58
2022/07/08 06:02:41;;;;;;;4.15;1.27;;;;;;;16.22;100.00;103082.56;2614576;36;20102;-57
2022/07/08 06:05:10;;;;;;;4.32;1.20;;;;;;;16.23;100.00;103084.31;2614915;36;20030;-56
2022/07/08 06:07:39;;;;;;;2.28;1.25;;;;;;;16.43;100.00;103074.63;2614486;36;20034;-63
2022/07/08 06:10:11;;;;;;;3.65;1.25;;;;;;;16.67;100.00;103076.38;2614129;36;20034;-60
2022/07/08 06:12:39;;;;;;;3.13;1.20;;;;;;;16.52;100.00;103078.47;2615817;36;20035;-58
2022/07/08 06:15:13;;;;;;;2.57;1.23;;;;;;;16.66;100.00;103079.22;2615538;36;20030;-57
2022/07/08 06:17:42;;;;;;;1.48;0.88;;;;;;;16.52;100.00;103088.47;2615343;36;20073;-64
2022/07/08 06:20:12;;;;;;;4.80;1.17;;;;;;;16.68;100.00;103083.56;2614724;36;20030;-66
2022/07/08 06:22:40;;;;;;;4.28;1.17;;;;;;;17.05;100.00;103085.19;2614495;36;20494;-59
2022/07/08 06:25:11;;;;;;;2.10;1.10;;;;;;;17.10;100.00;103092.00;2613926;31;20451;-58
2022/07/08 06:27:39;;;;;;;2.72;1.15;;;;;;;17.12;100.00;103081.88;2614875;36;20077;-57
2022/07/08 06:30:09;;;;;;;6.23;1.33;;;;;;;17.23;100.00;103072.81;2614357;36;20034;-63
2022/07/08 06:32:37;;;;;;;2.10;1.10;;;;;;;17.09;100.00;103075.78;2614416;31;20031;-60
2022/07/08 06:35:11;;;;;;;1.97;0.90;;;;;;;17.05;100.00;103085.19;2614095;36;20890;-62
2022/07/08 06:37:39;;;;;;;4.18;1.45;;;;;;;17.13;100.00;103083.56;2615008;36;20045;-59
2022/07/08 06:40:14;;;;;;;6.13;1.20;;;;;;;17.38;100.00;103084.28;2612554;36;20030;-58
2022/07/08 06:42:42;;;;;;;3.72;1.00;;;;;;;17.99;100.00;103082.88;2612874;36;20069;-62
2022/07/08 06:45:12;;;;;;;6.03;1.23;;;;;;;17.47;100.00;103080.81;2614183;36;20089;-58
2022/07/08 06:47:40;;;;;;;4.75;1.08;;;;;;;17.32;100.00;103087.53;2613181;36;20035;-64
2022/07/08 06:50:13;;;;;;;5.50;1.67;;;;;;;17.67;100.00;103079.16;2613800;36;20023;-59
2022/07/08 06:52:44;;;;;;;4.28;1.33;;;;;;;18.05;100.00;103090.56;2613821;36;20707;-61
2022/07/08 06:55:18;;;;;;;2.90;1.30;;;;;;;18.06;100.00;103097.72;2612885;36;20034;-59
2022/07/08 06:57:46;;;;;;;3.58;1.10;;;;;;;18.42;100.00;103089.22;2612877;36;20147;-58
2022/07/08 07:00:18;;;;;;;3.05;1.27;;;;;;;18.72;100.00;103096.59;2613192;36;20059;-60
2022/07/08 07:02:46;;;;;;;1.58;0.98;;;;;;;18.45;100.00;103097.19;2613561;36;20575;-63
2022/07/08 07:05:19;;;;;;;3.13;1.10;;;;;;;19.04;100.00;103093.75;2613151;36;20978;-65
2022/07/08 07:07:50;;;;;;;2.78;1.13;;;;;;;19.16;100.00;103089.06;2612940;36;20038;-58
2022/07/08 07:10:21;;;;;;;2.10;1.10;;;;;;;19.12;100.00;103084.88;2612780;36;21025;-58
2022/07/08 07:12:49;;;;;;;4.28;1.42;;;;;;;19.41;100.00;103097.78;2612167;31;20039;-61
2022/07/08 07:15:18;;;;;;;2.47;1.10;;;;;;;19.34;100.00;103094.72;2613017;36;20031;-61
2022/07/08 07:17:46;;;;;;;2.72;1.05;;;;;;;19.51;100.00;103093.19;2613644;36;20494;-63
2022/07/08 07:20:14;;;;;;;5.07;1.63;;;;;;;18.95;100.00;103100.06;2611283;36;20536;-59
2022/07/08 07:22:43;;;;;;;5.63;1.35;;;;;;;19.05;100.00;103094.63;2612851;36;20093;-59
2022/07/08 07:25:11;;;;;;;3.45;1.08;;;;;;;19.08;100.00;103095.22;2612890;31;20524;-59
2022/07/08 07:27:43;;;;;;;4.45;1.20;;;;;;;19.64;100.00;103101.13;2631336;36;20030;-63
2022/07/08 07:30:22;;;;;;;3.72;1.42;;;;;;;19.72;100.00;103101.25;2612220;32;20038;-59
2022/07/08 07:32:50;;;;;;;;;;;;;;;20.22;100.00;103096.72;2611281;36;20038;-59
2022/07/08 07:35:21;;;;;;;4.67;1.20;;;;;;;20.17;100.00;103096.28;2613797;36;20347;-55
2022/07/08 07:37:55;;;;;;;3.78;1.20;;;;;;;20.07;100.00;103083.47;2613867;36;20488;-64
2022/07/08 07:40:23;;;;;;;2.38;1.20;;;;;;;20.17;100.00;103085.34;2612355;36;20034;-60
2022/07/08 07:42:54;;;;;;;5.97;2.05;;;;;;;19.56;100.00;103093.63;2612177;36;20556;-60
2022/07/08 07:45:22;;;;;;;4.03;1.35;;;;;;;19.77;100.00;103092.63;2613308;36;20125;-59
2022/07/08 07:47:51;;;;;;;3.78;1.15;;;;;;;20.14;100.00;103086.50;2611582;31;20047;-68
2022/07/08 07:50:19;;;;;;;6.72;1.05;;;;;;;19.59;100.00;103090.59;2611343;36;20203;-62
2022/07/08 07:52:47;;;;;;;2.13;1.13;;;;;;;20.24;100.00;103084.63;2604710;32;20066;-60
2022/07/08 07:55:15;;;;;;;3.42;1.05;;;;;;;20.03;100.00;103083.91;2611979;36;20630;-59
2022/07/08 07:57:46;;;;;;;;;;;;;;;19.94;100.00;103089.22;2613321;36;20057;-58
2022/07/08 08:00:19;;;;;;;3.30;1.40;;;;;;;20.25;100.00;103082.75;2612082;36;19950;-65
2022/07/08 08:02:47;;;;;;;2.53;1.10;;;;;;;19.99;100.00;103094.25;2612763;36;20031;-59
2022/07/08 08:05:15;;;;;;;2.53;1.20;;;;;;;20.06;100.00;103087.22;2612406;36;20034;-59
2022/07/08 08:07:44;;;;;;;6.97;1.38;;;;;;;20.08;100.00;103095.25;2612374;36;20042;-63
2022/07/08 08:10:14;;;;;;;1.83;1.00;;;;;;;19.80;100.00;103088.78;2612528;36;20555;-59
2022/07/08 08:12:43;;;;;;;4.85;1.30;;;;;;;19.77;100.00;103090.78;2612892;36;20034;-63
2022/07/08 08:15:12;;;;;;;4.15;1.20;;;;;;;19.88;100.00;103092.53;2611579;36;20069;-59
2022/07/08 08:17:44;;;;;;;6.55;1.23;;;;;;;19.91;100.00;103092.25;2613574;31;20038;-59
2022/07/08 08:20:15;;;;;;;3.13;0.95;;;;;;;20.03;100.00;103092.13;2612003;36;20059;-61
2022/07/08 08:22:44;;;;;;;2.28;0.93;;;;;;;20.39;100.00;103089.63;2614313;36;20563;-63
2022/07/08 08:25:12;;;;;;;1.83;1.20;;;;;;;20.50;100.00;103097.66;2612949;36;20057;-63
2022/07/08 08:27:42;;;;;;;3.60;1.10;;;;;;;20.43;100.00;103096.53;2614028;36;20059;-59
2022/07/08 08:30:12;;;;;;;2.10;1.10;;;;;;;20.32;100.00;103094.84;2614862;36;20061;-57
2022/07/08 08:32:43;;;;;;;1.30;0.80;;;;;;;20.65;100.00;103098.91;2613703;36;20034;-59
2022/07/08 08:35:11;;;;;;;5.10;0.80;;;;;;;21.18;100.00;103094.69;2613919;36;20041;-66
2022/07/08 08:37:40;;;;;;;5.72;2.30;;;;;;;21.06;100.00;103092.34;2613093;36;20044;-59
2022/07/08 08:40:10;;;;;;;2.50;0.90;;;;;;;20.67;100.00;103093.34;2614775;31;20575;-60
2022/07/08 08:42:39;;;;;;;2.90;1.10;;;;;;;20.91;100.00;103092.81;2614113;36;20154;-59
2022/07/08 08:45:08;;;;;;;;;;;;;;;21.11;100.00;103090.00;2614097;36;20022;-62
2022/07/08 08:47:37;;;;;;;2.75;0.98;;;;;;;20.39;100.00;103089.63;2612592;31;20725;-63
2022/07/08 08:52:59;;;;;;;3.88;1.27;;;;;;;21.06;100.00;103092.34;2606833;36;20058;-58
2022/07/08 08:55:29;;;;;;;1.65;1.00;;;;;;;20.19;100.00;103097.84;2613879;36;20082;-66
2022/07/08 08:57:59;;;;;;;2.30;1.10;;;;;;;20.63;100.00;103087.25;2614252;36;20104;-63
2022/07/08 09:00:28;;;;;;;3.50;1.10;;;;;;;20.55;100.00;103092.59;2606117;36;20034;-59
2022/07/08 09:02:58;;;;;;;2.60;1.42;;;;;;;20.76;100.00;103091.56;2614992;31;20569;-61
2022/07/08 09:05:30;;;;;;;4.00;1.10;;;;;;;21.46;100.00;103088.34;2614294;36;20034;-60
2022/07/08 09:07:59;;;;;;;5.13;1.50;;;;;;;21.74;100.00;103082.88;2615151;31;20454;-62
2022/07/08 09:10:28;;;;;;;2.67;1.35;;;;;;;22.12;100.00;103080.81;2614401;31;20525;-60
2022/07/08 09:13:04;;;;;;;3.45;1.27;;;;;;;20.99;100.00;103086.59;2612738;36;20080;-63
2022/07/08 09:15:33;;;;;;;5.05;1.25;;;;;;;21.16;100.00;103087.69;2613492;36;20065;-58
2022/07/08 09:18:02;;;;;;;3.83;1.35;;;;;;;21.69;100.00;103077.84;2612906;31;20030;-63
2022/07/08 09:20:43;;;;;;;4.25;1.20;;;;;;;21.71;100.00;103084.03;2614298;36;20047;-59
2022/07/08 09:23:13;;;;;;;3.45;1.20;;;;;;;20.79;100.00;103083.94;2613360;36;20043;-58
2022/07/08 09:25:42;;;;;;;1.77;1.00;;;;;;;21.23;100.00;103087.91;2611632;36;20046;-61
2022/07/08 09:28:10;;;;;;;5.05;1.20;;;;;;;21.33;100.00;103085.97;2612452;36;20575;-63
2022/07/08 09:30:39;;;;;;;3.95;1.23;;;;;;;21.08;100.00;103085.69;2613970;36;20039;-58
2022/07/08 09:33:07;;;;;;;1.45;1.13;;;;;;;20.73;100.00;103086.41;2612590;36;20118;-59
2022/07/08 09:35:38;;;;;;;2.80;1.27;;;;;;;21.12;100.00;103083.50;2613218;36;20070;-62
2022/07/08 09:38:10;;;;;;;3.58;1.38;;;;;;;21.37;100.00;103084.66;2613859;36;20041;-57
2022/07/08 09:40:39;;;;;;;5.40;1.30;;;;;;;21.70;100.00;103096.00;2613514;36;20046;-62
2022/07/08 09:43:15;;;;;;;3.03;1.30;;;;;;;21.67;100.00;103088.97;2614332;36;20049;-60
2022/07/08 09:45:43;;;;;;;2.50;1.17;;;;;;;22.28;100.00;103091.06;2613809;36;20030;-61
2022/07/08 09:48:12;;;;;;;3.67;1.45;;;;;;;22.77;100.00;103082.31;2612787;36;20544;-58
2022/07/08 09:50:42;;;;;;;2.22;1.10;;;;;;;22.22;100.00;103095.28;2615099;36;20034;-65
2022/07/08 09:53:18;;;;;;;3.53;1.30;;;;;;;22.31;100.00;103091.59;2615178;36;20042;-59
2022/07/08 09:55:50;;;;;;;3.38;1.13;;;;;;;22.28;100.00;103088.31;2615257;36;20134;-59
2022/07/08 09:58:20;;;;;;;2.40;1.27;;;;;;;21.80;100.00;103074.84;2609415;36;20053;-60
2022/07/08 10:00:49;;;;;;;4.95;1.30;;;;;;;21.85;100.00;103077.16;2615662;36;20053;-63
2022/07/08 10:03:18;;;;;;;3.72;1.20;;;;;;;22.90;100.00;103074.50;2614574;36;20030;-61
2022/07/08 10:05:47;;;;;;;2.33;1.10;;;;;;;22.91;100.00;103073.47;2609477;36;20034;-58
2022/07/08 10:08:19;;;;;;;4.63;1.42;;;;;;;22.57;100.00;103071.56;2615302;31;20413;-58
2022/07/08 10:10:49;;;;;;;3.15;1.40;;;;;;;22.86;100.00;103068.44;2615066;36;20373;-59
2022/07/08 10:13:18;;;;;;;4.15;1.38;;;;;;;23.17;100.00;103075.31;2615570;36;20544;-64
2022/07/08 10:15:50;;;;;;;3.40;1.50;;;;;;;23.15;100.00;103071.88;2615303;36;20038;-58
2022/07/08 10:18:22;;;;;;;3.78;1.45;;;;;;;22.85;100.00;103068.59;2614693;36;20034;-60
2022/07/08 10:20:54;;;;;;;3.00;1.25;;;;;;;23.28;100.00;103075.03;2615298;36;20037;-62
2022/07/08 10:23:31;;;;;;;3.47;1.45;;;;;;;22.66;100.00;103076.09;2615136;36;20042;-64
2022/07/08 10:26:01;;;;;;;4.40;1.25;;;;;;;22.92;100.00;103072.44;2614507;36;20093;-63
2022/07/08 10:28:36;;;;;;;2.83;1.10;;;;;;;23.92;100.00;103071.72;2615078;36;20592;-58
2022/07/08 10:31:05;;;;;;;2.92;1.42;;;;;;;23.80;100.00;103071.16;2612675;31;20034;-59
2022/07/08 10:33:36;;;;;;;3.55;1.25;;;;;;;24.16;100.00;103065.38;2614421;36;20440;-64
2022/07/08 10:36:10;;;;;;;3.80;1.65;;;;;;;24.07;100.00;103066.38;2613938;36;20492;-61
2022/07/08 10:38:43;;;;;;;2.35;1.13;;;;;;;24.06;100.00;103072.94;2614784;36;20045;-58
2022/07/08 10:41:13;;;;;;;1.58;1.00;;;;;;;25.01;100.00;103073.09;2615192;36;20038;-62
2022/07/08 10:43:52;;;;;;;2.17;1.17;;;;;;;24.34;100.00;103070.69;2615182;36;20041;-64
2022/07/08 10:46:21;;;;;;;3.28;1.45;;;;;;;24.60;100.00;103059.47;2613681;36;20038;-60
2022/07/08 10:48:54;;;;;;;5.13;1.40;;;;;;;24.47;100.00;103070.16;2613252;36;20035;-56
2022/07/08 10:51:58;;;;;;;4.30;1.50;;;;;;;24.87;100.00;103059.19;2613084;36;20037;-63
2022/07/08 10:54:35;;;;;;;4.32;1.20;;;;;;;24.97;100.00;103055.22;2613707;36;20030;-59
2022/07/08 10:57:03;;;;;;;2.72;1.30;;;;;;;25.10;100.00;103053.75;2614643;31;20042;-64
2022/07/08 10:59:35;;;;;;;3.58;1.25;;;;;;;24.35;100.00;103072.41;2613205;31;20031;-62
2022/07/08 11:02:06;;;;;;;3.45;1.10;;;;;;;24.71;100.00;103055.47;2614163;36;20073;-59
2022/07/08 11:04:47;;;;;;;3.35;1.30;;;;;;;24.90;100.00;103064.38;2607268;36;20038;-60
2022/07/08 11:07:34;;;;;;;3.58;1.20;;;;;;;25.24;100.00;103055.75;2605956;36;20034;-63
2022/07/08 11:10:10;;;;;;;1.30;0.90;;;;;;;25.78;100.00;103052.16;2613521;31;20058;-60
2022/07/08 11:12:40;;;;;;;2.90;1.27;;;;;;;25.42;100.00;103055.50;2613816;36;20597;-61
2022/07/08 11:15:12;;;;;;;2.70;1.10;;;;;;;25.37;100.00;103052.47;2614601;36;20251;-66
2022/07/08 11:17:42;;;;;;;3.08;1.10;;;;;;;25.70;100.00;103061.34;2610873;36;20779;-59
2022/07/08 11:20:13;;;;;;;2.85;1.30;;;;;;;25.39;95.99;103058.63;2613250;31;20042;-63
2022/07/08 11:22:43;;;;;;;4.05;1.52;;;;;;;25.56;100.00;103053.88;2614320;36;20555;-60
2022/07/08 11:25:16;;;;;;;3.95;1.20;;;;;;;25.30;100.00;103056.94;2613222;36;22943;-61
2022/07/08 11:27:45;;;;;;;1.90;1.33;;;;;;;25.68;98.72;103057.06;2615092;36;20038;-61
2022/07/08 11:30:15;;;;;;;4.28;1.40;;;;;;;25.03;100.00;103053.63;2614746;36;20035;-64
2022/07/08 11:32:45;;;;;;;6.50;1.20;;;;;;;24.99;100.00;103052.28;2613227;36;20686;-63
2022/07/08 11:35:13;;;;;;;2.35;1.10;;;;;;;25.42;98.12;103044.47;2615476;36;20440;-62
2022/07/08 11:37:42;;;;;;;3.97;1.17;;;;;;;26.01;99.27;103048.56;2613215;36;20634;-62